sensor_id;sensor_type;location;lat;lon;timestamp;temperature;humidity
62809;DHT22;48848;39.002;-94.584;2022-08-19T00:00:27;21.10;44.10
62809;DHT22;48848;39.002;-94.584;2022-08-19T00:02:53;21.00;44.30
62809;DHT22;48848;39.002;-94.584;2022-08-19T00:05:19;21.00;44.20
62809;DHT22;48848;39.002;-94.584;2022-08-19T00:07:45;20.90;44.30
62809;DHT22;48848;39.002;-94.584;2022-08-19T00:10:12;20.80;44.30
62809;DHT22;48848;39.002;-94.584;2022-08-19T00:12:38;20.80;44.00
62809;DHT22;48848;39.002;-94.584;2022-08-19T00:15:09;20.80;44.10
62809;DHT22;48848;39.002;-94.584;2022-08-19T00:17:39;20.70;44.20
62809;DHT22;48848;39.002;-94.584;2022-08-19T00:20:05;20.70;44.20
62809;DHT22;48848;39.002;-94.584;2022-08-19T00:22:31;20.70;44.30
62809;DHT22;48848;39.002;-94.584;2022-08-19T00:24:58;20.60;44.20
62809;DHT22;48848;39.002;-94.584;2022-08-19T00:27:24;20.60;44.00
62809;DHT22;48848;39.002;-94.584;2022-08-19T00:29:50;20.60;44.10
62809;DHT22;48848;39.002;-94.584;2022-08-19T00:32:16;20.60;44.00
62809;DHT22;48848;39.002;-94.584;2022-08-19T00:34:42;20.60;44.00
62809;DHT22;48848;39.002;-94.584;2022-08-19T00:37:08;20.60;43.80
62809;DHT22;48848;39.002;-94.584;2022-08-19T00:39:34;20.70;43.90
62809;DHT22;48848;39.002;-94.584;2022-08-19T00:42:00;20.70;43.90
62809;DHT22;48848;39.002;-94.584;2022-08-19T00:44:28;20.70;43.80
62809;DHT22;48848;39.002;-94.584;2022-08-19T00:46:55;20.60;44.00
62809;DHT22;48848;39.002;-94.584;2022-08-19T00:49:25;20.60;44.00
62809;DHT22;48848;39.002;-94.584;2022-08-19T00:51:57;20.60;45.10
62809;DHT22;48848;39.002;-94.584;2022-08-19T00:54:25;20.60;44.10
62809;DHT22;48848;39.002;-94.584;2022-08-19T00:56:52;20.60;44.20
62809;DHT22;48848;39.002;-94.584;2022-08-19T00:59:18;20.50;44.30
62809;DHT22;48848;39.002;-94.584;2022-08-19T01:01:44;20.60;44.70
62809;DHT22;48848;39.002;-94.584;2022-08-19T01:04:11;20.60;44.80
62809;DHT22;48848;39.002;-94.584;2022-08-19T01:06:38;20.60;44.80
62809;DHT22;48848;39.002;-94.584;2022-08-19T01:09:06;20.60;45.00
62809;DHT22;48848;39.002;-94.584;2022-08-19T01:11:33;20.50;45.30
62809;DHT22;48848;39.002;-94.584;2022-08-19T01:14:00;20.60;46.20
62809;DHT22;48848;39.002;-94.584;2022-08-19T01:16:26;20.60;46.20
62809;DHT22;48848;39.002;-94.584;2022-08-19T01:18:53;20.50;46.20
62809;DHT22;48848;39.002;-94.584;2022-08-19T01:21:37;20.50;46.50
62809;DHT22;48848;39.002;-94.584;2022-08-19T01:24:06;20.50;46.40
62809;DHT22;48848;39.002;-94.584;2022-08-19T01:26:34;20.40;46.20
62809;DHT22;48848;39.002;-94.584;2022-08-19T01:29:03;20.40;47.10
62809;DHT22;48848;39.002;-94.584;2022-08-19T01:31:29;20.40;46.60
62809;DHT22;48848;39.002;-94.584;2022-08-19T01:33:58;20.40;46.30
62809;DHT22;48848;39.002;-94.584;2022-08-19T01:36:36;20.30;46.10
62809;DHT22;48848;39.002;-94.584;2022-08-19T01:39:03;20.40;46.40
62809;DHT22;48848;39.002;-94.584;2022-08-19T01:41:29;20.30;45.70
62809;DHT22;48848;39.002;-94.584;2022-08-19T01:43:55;20.40;45.70
62809;DHT22;48848;39.002;-94.584;2022-08-19T01:46:21;20.30;45.80
62809;DHT22;48848;39.002;-94.584;2022-08-19T01:48:47;20.30;45.50
62809;DHT22;48848;39.002;-94.584;2022-08-19T01:51:14;20.30;45.40
62809;DHT22;48848;39.002;-94.584;2022-08-19T01:53:40;20.30;45.50
62809;DHT22;48848;39.002;-94.584;2022-08-19T01:56:06;20.20;45.40
62809;DHT22;48848;39.002;-94.584;2022-08-19T01:58:40;20.20;45.60
62809;DHT22;48848;39.002;-94.584;2022-08-19T02:01:08;20.20;45.50
62809;DHT22;48848;39.002;-94.584;2022-08-19T02:03:34;20.10;45.40
62809;DHT22;48848;39.002;-94.584;2022-08-19T02:06:01;20.10;45.20
62809;DHT22;48848;39.002;-94.584;2022-08-19T02:08:31;20.30;47.00
62809;DHT22;48848;39.002;-94.584;2022-08-19T02:10:57;20.50;49.00
62809;DHT22;48848;39.002;-94.584;2022-08-19T02:13:24;20.70;49.10
62809;DHT22;48848;39.002;-94.584;2022-08-19T02:15:51;21.00;48.60
62809;DHT22;48848;39.002;-94.584;2022-08-19T02:18:17;21.40;47.90
62809;DHT22;48848;39.002;-94.584;2022-08-19T02:20:43;21.60;47.60
62809;DHT22;48848;39.002;-94.584;2022-08-19T02:23:10;21.80;46.70
62809;DHT22;48848;39.002;-94.584;2022-08-19T02:25:36;21.80;47.10
62809;DHT22;48848;39.002;-94.584;2022-08-19T02:28:02;21.90;47.10
62809;DHT22;48848;39.002;-94.584;2022-08-19T02:30:28;22.00;47.30
62809;DHT22;48848;39.002;-94.584;2022-08-19T02:32:54;22.00;47.20
62809;DHT22;48848;39.002;-94.584;2022-08-19T02:35:20;21.60;47.60
62809;DHT22;48848;39.002;-94.584;2022-08-19T02:37:46;21.30;47.20
62809;DHT22;48848;39.002;-94.584;2022-08-19T02:40:31;21.10;47.20
62809;DHT22;48848;39.002;-94.584;2022-08-19T02:43:01;21.00;50.90
62809;DHT22;48848;39.002;-94.584;2022-08-19T02:45:31;20.90;47.30
62809;DHT22;48848;39.002;-94.584;2022-08-19T02:47:57;20.80;46.90
62809;DHT22;48848;39.002;-94.584;2022-08-19T02:50:23;20.80;46.60
62809;DHT22;48848;39.002;-94.584;2022-08-19T02:52:49;20.80;46.40
62809;DHT22;48848;39.002;-94.584;2022-08-19T02:55:15;20.70;46.10
62809;DHT22;48848;39.002;-94.584;2022-08-19T02:57:41;20.60;46.00
62809;DHT22;48848;39.002;-94.584;2022-08-19T03:00:07;20.60;45.90
62809;DHT22;48848;39.002;-94.584;2022-08-19T03:02:37;20.50;45.70
62809;DHT22;48848;39.002;-94.584;2022-08-19T03:05:04;20.50;45.80
62809;DHT22;48848;39.002;-94.584;2022-08-19T03:07:30;20.40;45.90
62809;DHT22;48848;39.002;-94.584;2022-08-19T03:09:56;20.40;46.10
62809;DHT22;48848;39.002;-94.584;2022-08-19T03:12:22;20.40;45.80
62809;DHT22;48848;39.002;-94.584;2022-08-19T03:14:48;20.30;45.60
62809;DHT22;48848;39.002;-94.584;2022-08-19T03:17:14;20.30;45.60
62809;DHT22;48848;39.002;-94.584;2022-08-19T03:19:40;20.30;45.60
62809;DHT22;48848;39.002;-94.584;2022-08-19T03:22:06;20.40;46.60
62809;DHT22;48848;39.002;-94.584;2022-08-19T03:24:33;20.80;45.30
62809;DHT22;48848;39.002;-94.584;2022-08-19T03:26:59;21.10;45.00
62809;DHT22;48848;39.002;-94.584;2022-08-19T03:29:26;21.40;44.50
62809;DHT22;48848;39.002;-94.584;2022-08-19T03:31:52;21.50;44.30
62809;DHT22;48848;39.002;-94.584;2022-08-19T03:34:22;21.70;44.50
62809;DHT22;48848;39.002;-94.584;2022-08-19T03:36:52;21.70;44.40
62809;DHT22;48848;39.002;-94.584;2022-08-19T03:39:19;21.80;44.70
62809;DHT22;48848;39.002;-94.584;2022-08-19T03:41:46;21.80;44.70
62809;DHT22;48848;39.002;-94.584;2022-08-19T03:44:13;21.90;45.20
62809;DHT22;48848;39.002;-94.584;2022-08-19T03:46:39;22.00;45.10
62809;DHT22;48848;39.002;-94.584;2022-08-19T03:49:05;22.00;45.10
62809;DHT22;48848;39.002;-94.584;2022-08-19T03:51:35;21.80;44.60
62809;DHT22;48848;39.002;-94.584;2022-08-19T03:54:03;21.50;44.80
62809;DHT22;48848;39.002;-94.584;2022-08-19T03:56:29;21.20;45.20
62809;DHT22;48848;39.002;-94.584;2022-08-19T03:58:55;21.00;45.20
62809;DHT22;48848;39.002;-94.584;2022-08-19T04:01:22;20.90;45.30
62809;DHT22;48848;39.002;-94.584;2022-08-19T04:03:49;20.90;45.30
62809;DHT22;48848;39.002;-94.584;2022-08-19T04:06:25;20.70;45.40
62809;DHT22;48848;39.002;-94.584;2022-08-19T04:08:51;20.60;45.40
62809;DHT22;48848;39.002;-94.584;2022-08-19T04:11:20;20.60;45.20
62809;DHT22;48848;39.002;-94.584;2022-08-19T04:13:47;20.60;45.40
62809;DHT22;48848;39.002;-94.584;2022-08-19T04:16:13;20.70;48.50
62809;DHT22;48848;39.002;-94.584;2022-08-19T04:18:39;20.90;51.00
62809;DHT22;48848;39.002;-94.584;2022-08-19T04:21:06;21.10;49.70
62809;DHT22;48848;39.002;-94.584;2022-08-19T04:23:33;21.40;48.80
62809;DHT22;48848;39.002;-94.584;2022-08-19T04:25:59;21.60;48.40
62809;DHT22;48848;39.002;-94.584;2022-08-19T04:28:25;21.70;47.80
62809;DHT22;48848;39.002;-94.584;2022-08-19T04:30:53;21.80;47.90
62809;DHT22;48848;39.002;-94.584;2022-08-19T04:33:20;21.90;47.70
62809;DHT22;48848;39.002;-94.584;2022-08-19T04:35:46;21.90;47.60
62809;DHT22;48848;39.002;-94.584;2022-08-19T04:38:14;22.00;47.50
62809;DHT22;48848;39.002;-94.584;2022-08-19T04:40:43;22.00;47.60
62809;DHT22;48848;39.002;-94.584;2022-08-19T04:43:28;22.10;47.60
62809;DHT22;48848;39.002;-94.584;2022-08-19T04:45:54;22.10;47.30
62809;DHT22;48848;39.002;-94.584;2022-08-19T04:48:20;22.20;47.40
62809;DHT22;48848;39.002;-94.584;2022-08-19T04:50:51;22.30;48.00
62809;DHT22;48848;39.002;-94.584;2022-08-19T04:53:17;22.30;47.40
62809;DHT22;48848;39.002;-94.584;2022-08-19T04:55:43;22.40;47.80
62809;DHT22;48848;39.002;-94.584;2022-08-19T04:58:09;22.40;47.90
62809;DHT22;48848;39.002;-94.584;2022-08-19T05:00:37;22.40;47.60
62809;DHT22;48848;39.002;-94.584;2022-08-19T05:03:05;22.40;47.40
62809;DHT22;48848;39.002;-94.584;2022-08-19T05:05:31;22.40;47.70
62809;DHT22;48848;39.002;-94.584;2022-08-19T05:07:57;22.50;47.70
62809;DHT22;48848;39.002;-94.584;2022-08-19T05:10:24;22.50;47.50
62809;DHT22;48848;39.002;-94.584;2022-08-19T05:12:50;22.50;47.50
62809;DHT22;48848;39.002;-94.584;2022-08-19T05:15:15;22.50;47.50
62809;DHT22;48848;39.002;-94.584;2022-08-19T05:17:42;22.60;47.50
62809;DHT22;48848;39.002;-94.584;2022-08-19T05:20:29;22.60;47.70
62809;DHT22;48848;39.002;-94.584;2022-08-19T05:23:13;22.60;47.50
62809;DHT22;48848;39.002;-94.584;2022-08-19T05:25:41;22.70;47.80
62809;DHT22;48848;39.002;-94.584;2022-08-19T05:28:07;22.70;47.90
62809;DHT22;48848;39.002;-94.584;2022-08-19T05:30:33;22.70;47.50
62809;DHT22;48848;39.002;-94.584;2022-08-19T05:32:59;22.60;47.50
62809;DHT22;48848;39.002;-94.584;2022-08-19T05:35:25;22.20;46.00
62809;DHT22;48848;39.002;-94.584;2022-08-19T05:37:51;21.90;45.80
62809;DHT22;48848;39.002;-94.584;2022-08-19T05:40:19;21.70;45.70
62809;DHT22;48848;39.002;-94.584;2022-08-19T05:42:45;21.60;45.50
62809;DHT22;48848;39.002;-94.584;2022-08-19T05:45:11;21.50;45.20
62809;DHT22;48848;39.002;-94.584;2022-08-19T05:47:38;21.40;45.20
62809;DHT22;48848;39.002;-94.584;2022-08-19T05:50:03;21.30;45.20
62809;DHT22;48848;39.002;-94.584;2022-08-19T05:52:30;21.20;44.70
62809;DHT22;48848;39.002;-94.584;2022-08-19T05:54:55;21.10;44.70
62809;DHT22;48848;39.002;-94.584;2022-08-19T05:57:22;21.00;44.50
62809;DHT22;48848;39.002;-94.584;2022-08-19T05:59:48;20.90;44.50
62809;DHT22;48848;39.002;-94.584;2022-08-19T06:02:16;20.90;44.70
62809;DHT22;48848;39.002;-94.584;2022-08-19T06:04:42;21.00;47.50
62809;DHT22;48848;39.002;-94.584;2022-08-19T06:07:08;21.40;46.00
62809;DHT22;48848;39.002;-94.584;2022-08-19T06:09:34;21.60;45.50
62809;DHT22;48848;39.002;-94.584;2022-08-19T06:12:00;21.70;44.90
62809;DHT22;48848;39.002;-94.584;2022-08-19T06:14:28;21.90;44.90
62809;DHT22;48848;39.002;-94.584;2022-08-19T06:16:54;22.00;45.00
62809;DHT22;48848;39.002;-94.584;2022-08-19T06:19:21;22.10;45.00
62809;DHT22;48848;39.002;-94.584;2022-08-19T06:21:50;22.10;45.00
62809;DHT22;48848;39.002;-94.584;2022-08-19T06:24:18;22.20;45.10
62809;DHT22;48848;39.002;-94.584;2022-08-19T06:26:45;22.20;45.50
62809;DHT22;48848;39.002;-94.584;2022-08-19T06:29:12;22.20;45.30
62809;DHT22;48848;39.002;-94.584;2022-08-19T06:31:41;22.30;45.60
62809;DHT22;48848;39.002;-94.584;2022-08-19T06:34:07;22.30;45.70
62809;DHT22;48848;39.002;-94.584;2022-08-19T06:36:34;22.30;45.60
62809;DHT22;48848;39.002;-94.584;2022-08-19T06:39:01;22.40;45.80
62809;DHT22;48848;39.002;-94.584;2022-08-19T06:41:28;22.40;45.80
62809;DHT22;48848;39.002;-94.584;2022-08-19T06:43:55;22.50;45.60
62809;DHT22;48848;39.002;-94.584;2022-08-19T06:46:21;22.40;46.20
62809;DHT22;48848;39.002;-94.584;2022-08-19T06:48:47;22.50;45.80
62809;DHT22;48848;39.002;-94.584;2022-08-19T06:51:14;22.50;46.10
62809;DHT22;48848;39.002;-94.584;2022-08-19T06:53:41;22.60;46.20
62809;DHT22;48848;39.002;-94.584;2022-08-19T06:56:12;22.50;45.90
62809;DHT22;48848;39.002;-94.584;2022-08-19T06:58:38;22.50;46.00
62809;DHT22;48848;39.002;-94.584;2022-08-19T07:01:04;22.60;46.20
62809;DHT22;48848;39.002;-94.584;2022-08-19T07:03:31;22.60;46.40
62809;DHT22;48848;39.002;-94.584;2022-08-19T07:06:02;22.60;46.20
62809;DHT22;48848;39.002;-94.584;2022-08-19T07:08:28;22.60;46.30
62809;DHT22;48848;39.002;-94.584;2022-08-19T07:10:54;22.60;46.60
62809;DHT22;48848;39.002;-94.584;2022-08-19T07:13:20;22.70;46.60
62809;DHT22;48848;39.002;-94.584;2022-08-19T07:15:47;22.70;46.60
62809;DHT22;48848;39.002;-94.584;2022-08-19T07:18:17;22.70;46.70
62809;DHT22;48848;39.002;-94.584;2022-08-19T07:20:45;22.70;46.90
62809;DHT22;48848;39.002;-94.584;2022-08-19T07:23:11;22.80;46.70
62809;DHT22;48848;39.002;-94.584;2022-08-19T07:25:37;22.80;46.80
62809;DHT22;48848;39.002;-94.584;2022-08-19T07:28:05;22.80;46.70
62809;DHT22;48848;39.002;-94.584;2022-08-19T07:30:38;22.80;47.00
62809;DHT22;48848;39.002;-94.584;2022-08-19T07:33:06;22.80;47.00
62809;DHT22;48848;39.002;-94.584;2022-08-19T07:35:32;22.80;46.90
62809;DHT22;48848;39.002;-94.584;2022-08-19T07:37:58;22.80;46.90
62809;DHT22;48848;39.002;-94.584;2022-08-19T07:40:24;22.80;47.30
62809;DHT22;48848;39.002;-94.584;2022-08-19T07:42:50;22.80;46.90
62809;DHT22;48848;39.002;-94.584;2022-08-19T07:45:17;22.50;45.60
62809;DHT22;48848;39.002;-94.584;2022-08-19T07:47:43;22.20;45.40
62809;DHT22;48848;39.002;-94.584;2022-08-19T07:50:09;22.00;46.30
62809;DHT22;48848;39.002;-94.584;2022-08-19T07:52:37;21.80;45.00
62809;DHT22;48848;39.002;-94.584;2022-08-19T07:55:05;21.70;45.00
62809;DHT22;48848;39.002;-94.584;2022-08-19T07:57:31;21.50;44.90
62809;DHT22;48848;39.002;-94.584;2022-08-19T07:59:57;21.50;45.00
62809;DHT22;48848;39.002;-94.584;2022-08-19T08:02:23;21.40;44.70
62809;DHT22;48848;39.002;-94.584;2022-08-19T08:04:49;21.30;44.50
62809;DHT22;48848;39.002;-94.584;2022-08-19T08:07:33;21.20;45.20
62809;DHT22;48848;39.002;-94.584;2022-08-19T08:10:19;21.40;48.20
62809;DHT22;48848;39.002;-94.584;2022-08-19T08:12:45;21.70;46.00
62809;DHT22;48848;39.002;-94.584;2022-08-19T08:15:13;21.90;45.70
62809;DHT22;48848;39.002;-94.584;2022-08-19T08:17:44;22.10;45.60
62809;DHT22;48848;39.002;-94.584;2022-08-19T08:20:11;22.10;45.20
62809;DHT22;48848;39.002;-94.584;2022-08-19T08:22:37;22.20;45.40
62809;DHT22;48848;39.002;-94.584;2022-08-19T08:25:26;22.20;45.40
62809;DHT22;48848;39.002;-94.584;2022-08-19T08:27:52;22.30;45.40
62809;DHT22;48848;39.002;-94.584;2022-08-19T08:30:19;22.30;45.60
62809;DHT22;48848;39.002;-94.584;2022-08-19T08:32:47;22.40;45.60
62809;DHT22;48848;39.002;-94.584;2022-08-19T08:35:15;22.40;45.70
62809;DHT22;48848;39.002;-94.584;2022-08-19T08:37:42;22.40;45.80
62809;DHT22;48848;39.002;-94.584;2022-08-19T08:43:37;22.50;45.90
62809;DHT22;48848;39.002;-94.584;2022-08-19T08:45:47;22.50;46.00
62809;DHT22;48848;39.002;-94.584;2022-08-19T08:48:22;22.50;46.10
62809;DHT22;48848;39.002;-94.584;2022-08-19T08:50:50;22.60;46.70
62809;DHT22;48848;39.002;-94.584;2022-08-19T08:53:18;22.50;46.30
62809;DHT22;48848;39.002;-94.584;2022-08-19T08:55:44;22.60;46.20
62809;DHT22;48848;39.002;-94.584;2022-08-19T08:58:13;22.60;46.20
62809;DHT22;48848;39.002;-94.584;2022-08-19T09:00:43;22.60;46.50
62809;DHT22;48848;39.002;-94.584;2022-08-19T09:03:21;22.60;46.60
62809;DHT22;48848;39.002;-94.584;2022-08-19T09:06:01;22.60;46.30
62809;DHT22;48848;39.002;-94.584;2022-08-19T09:11:24;22.70;46.80
62809;DHT22;48848;39.002;-94.584;2022-08-19T09:16:21;22.70;46.70
62809;DHT22;48848;39.002;-94.584;2022-08-19T09:18:53;22.80;46.80
62809;DHT22;48848;39.002;-94.584;2022-08-19T09:21:20;22.80;46.80
62809;DHT22;48848;39.002;-94.584;2022-08-19T09:23:48;22.70;47.10
62809;DHT22;48848;39.002;-94.584;2022-08-19T09:26:15;22.80;47.10
62809;DHT22;48848;39.002;-94.584;2022-08-19T09:28:42;22.80;47.10
62809;DHT22;48848;39.002;-94.584;2022-08-19T09:31:14;22.80;47.10
62809;DHT22;48848;39.002;-94.584;2022-08-19T09:33:40;22.80;48.00
62809;DHT22;48848;39.002;-94.584;2022-08-19T09:36:10;22.80;47.30
62809;DHT22;48848;39.002;-94.584;2022-08-19T09:38:38;22.80;47.00
62809;DHT22;48848;39.002;-94.584;2022-08-19T09:41:08;22.80;47.30
62809;DHT22;48848;39.002;-94.584;2022-08-19T09:43:36;22.90;47.90
62809;DHT22;48848;39.002;-94.584;2022-08-19T09:46:03;22.80;47.80
62809;DHT22;48848;39.002;-94.584;2022-08-19T09:48:32;22.80;47.50
62809;DHT22;48848;39.002;-94.584;2022-08-19T09:53:34;22.90;47.70
62809;DHT22;48848;39.002;-94.584;2022-08-19T09:56:00;22.80;47.30
62809;DHT22;48848;39.002;-94.584;2022-08-19T09:58:26;22.80;47.30
62809;DHT22;48848;39.002;-94.584;2022-08-19T10:00:54;22.90;47.60
62809;DHT22;48848;39.002;-94.584;2022-08-19T10:03:20;22.90;48.30
62809;DHT22;48848;39.002;-94.584;2022-08-19T10:05:46;22.90;47.70
62809;DHT22;48848;39.002;-94.584;2022-08-19T10:08:19;22.90;47.50
62809;DHT22;48848;39.002;-94.584;2022-08-19T10:10:45;22.90;48.20
62809;DHT22;48848;39.002;-94.584;2022-08-19T10:13:11;22.90;48.30
62809;DHT22;48848;39.002;-94.584;2022-08-19T10:15:37;22.90;48.40
62809;DHT22;48848;39.002;-94.584;2022-08-19T10:18:06;22.90;48.00
62809;DHT22;48848;39.002;-94.584;2022-08-19T10:20:32;22.90;48.30
62809;DHT22;48848;39.002;-94.584;2022-08-19T10:23:01;22.90;47.70
62809;DHT22;48848;39.002;-94.584;2022-08-19T10:25:27;22.90;47.70
62809;DHT22;48848;39.002;-94.584;2022-08-19T10:27:53;22.90;47.70
62809;DHT22;48848;39.002;-94.584;2022-08-19T10:30:20;23.00;47.90
62809;DHT22;48848;39.002;-94.584;2022-08-19T10:32:47;23.00;48.00
62809;DHT22;48848;39.002;-94.584;2022-08-19T10:35:13;22.90;47.60
62809;DHT22;48848;39.002;-94.584;2022-08-19T10:37:39;23.00;47.80
62809;DHT22;48848;39.002;-94.584;2022-08-19T10:40:06;22.90;48.40
62809;DHT22;48848;39.002;-94.584;2022-08-19T10:42:33;23.00;48.10
62809;DHT22;48848;39.002;-94.584;2022-08-19T10:44:59;22.90;48.10
62809;DHT22;48848;39.002;-94.584;2022-08-19T10:47:25;23.00;48.60
62809;DHT22;48848;39.002;-94.584;2022-08-19T10:49:51;23.00;48.40
62809;DHT22;48848;39.002;-94.584;2022-08-19T10:52:36;23.00;48.10
62809;DHT22;48848;39.002;-94.584;2022-08-19T10:55:03;23.00;48.00
62809;DHT22;48848;39.002;-94.584;2022-08-19T10:57:47;23.00;48.40
62809;DHT22;48848;39.002;-94.584;2022-08-19T11:00:13;23.00;48.00
62809;DHT22;48848;39.002;-94.584;2022-08-19T11:02:40;23.00;48.20
62809;DHT22;48848;39.002;-94.584;2022-08-19T11:05:07;23.00;48.10
62809;DHT22;48848;39.002;-94.584;2022-08-19T11:07:35;23.00;48.60
62809;DHT22;48848;39.002;-94.584;2022-08-19T11:10:03;23.00;48.50
62809;DHT22;48848;39.002;-94.584;2022-08-19T11:12:29;23.00;48.80
62809;DHT22;48848;39.002;-94.584;2022-08-19T11:14:55;23.00;48.60
62809;DHT22;48848;39.002;-94.584;2022-08-19T11:17:20;23.00;48.50
62809;DHT22;48848;39.002;-94.584;2022-08-19T11:19:49;23.10;48.30
62809;DHT22;48848;39.002;-94.584;2022-08-19T11:22:15;23.10;48.50
62809;DHT22;48848;39.002;-94.584;2022-08-19T11:24:41;23.10;48.60
62809;DHT22;48848;39.002;-94.584;2022-08-19T11:27:07;23.10;48.30
62809;DHT22;48848;39.002;-94.584;2022-08-19T11:29:35;22.80;46.50
62809;DHT22;48848;39.002;-94.584;2022-08-19T11:32:06;22.50;46.10
62809;DHT22;48848;39.002;-94.584;2022-08-19T11:34:32;22.30;46.00
62809;DHT22;48848;39.002;-94.584;2022-08-19T11:37:01;22.00;45.80
62809;DHT22;48848;39.002;-94.584;2022-08-19T11:39:28;21.70;45.90
62809;DHT22;48848;39.002;-94.584;2022-08-19T11:41:55;21.70;45.70
62809;DHT22;48848;39.002;-94.584;2022-08-19T11:44:23;21.60;46.40
62809;DHT22;48848;39.002;-94.584;2022-08-19T11:46:49;21.60;47.10
62809;DHT22;48848;39.002;-94.584;2022-08-19T11:49:15;21.90;46.70
62809;DHT22;48848;39.002;-94.584;2022-08-19T11:51:45;22.10;46.10
62809;DHT22;48848;39.002;-94.584;2022-08-19T11:54:12;22.30;46.00
62809;DHT22;48848;39.002;-94.584;2022-08-19T11:56:38;22.40;45.80
62809;DHT22;48848;39.002;-94.584;2022-08-19T11:59:05;22.50;46.40
62809;DHT22;48848;39.002;-94.584;2022-08-19T12:01:31;22.60;46.30
62809;DHT22;48848;39.002;-94.584;2022-08-19T12:03:57;22.60;46.20
62809;DHT22;48848;39.002;-94.584;2022-08-19T12:06:24;22.60;46.00
62809;DHT22;48848;39.002;-94.584;2022-08-19T12:08:56;22.60;46.30
62809;DHT22;48848;39.002;-94.584;2022-08-19T12:11:23;22.60;46.70
62809;DHT22;48848;39.002;-94.584;2022-08-19T12:13:49;22.60;46.20
62809;DHT22;48848;39.002;-94.584;2022-08-19T12:16:17;22.60;46.40
62809;DHT22;48848;39.002;-94.584;2022-08-19T12:18:43;22.70;46.40
62809;DHT22;48848;39.002;-94.584;2022-08-19T12:21:15;22.70;47.00
62809;DHT22;48848;39.002;-94.584;2022-08-19T12:23:41;22.70;46.60
62809;DHT22;48848;39.002;-94.584;2022-08-19T12:26:08;22.70;47.00
62809;DHT22;48848;39.002;-94.584;2022-08-19T12:28:35;22.70;47.00
62809;DHT22;48848;39.002;-94.584;2022-08-19T12:31:01;22.70;46.90
62809;DHT22;48848;39.002;-94.584;2022-08-19T12:33:26;22.70;46.90
62809;DHT22;48848;39.002;-94.584;2022-08-19T12:35:54;22.70;47.00
62809;DHT22;48848;39.002;-94.584;2022-08-19T12:38:20;22.80;46.90
62809;DHT22;48848;39.002;-94.584;2022-08-19T12:40:49;22.70;46.90
62809;DHT22;48848;39.002;-94.584;2022-08-19T12:43:17;22.80;47.00
62809;DHT22;48848;39.002;-94.584;2022-08-19T12:45:44;22.80;47.20
62809;DHT22;48848;39.002;-94.584;2022-08-19T12:48:10;22.80;47.20
62809;DHT22;48848;39.002;-94.584;2022-08-19T12:50:39;22.80;47.10
62809;DHT22;48848;39.002;-94.584;2022-08-19T12:53:05;22.80;47.30
62809;DHT22;48848;39.002;-94.584;2022-08-19T12:55:31;22.80;47.80
62809;DHT22;48848;39.002;-94.584;2022-08-19T12:57:57;22.80;47.30
62809;DHT22;48848;39.002;-94.584;2022-08-19T13:00:23;22.90;47.70
62809;DHT22;48848;39.002;-94.584;2022-08-19T13:02:50;22.80;47.60
62809;DHT22;48848;39.002;-94.584;2022-08-19T13:05:17;22.90;47.90
62809;DHT22;48848;39.002;-94.584;2022-08-19T13:07:45;22.90;47.40
62809;DHT22;48848;39.002;-94.584;2022-08-19T13:10:12;22.90;47.90
62809;DHT22;48848;39.002;-94.584;2022-08-19T13:12:41;22.90;47.40
62809;DHT22;48848;39.002;-94.584;2022-08-19T13:15:07;22.90;47.70
62809;DHT22;48848;39.002;-94.584;2022-08-19T13:17:34;22.90;47.70
62809;DHT22;48848;39.002;-94.584;2022-08-19T13:20:00;22.90;47.60
62809;DHT22;48848;39.002;-94.584;2022-08-19T13:22:26;22.90;47.70
62809;DHT22;48848;39.002;-94.584;2022-08-19T13:24:52;22.90;48.00
62809;DHT22;48848;39.002;-94.584;2022-08-19T13:27:18;22.90;48.20
62809;DHT22;48848;39.002;-94.584;2022-08-19T13:29:44;22.90;47.60
62809;DHT22;48848;39.002;-94.584;2022-08-19T13:32:29;23.00;47.80
62809;DHT22;48848;39.002;-94.584;2022-08-19T13:35:14;23.00;47.60
62809;DHT22;48848;39.002;-94.584;2022-08-19T13:37:40;23.00;47.90
62809;DHT22;48848;39.002;-94.584;2022-08-19T13:40:07;23.00;47.60
62809;DHT22;48848;39.002;-94.584;2022-08-19T13:42:36;23.00;47.70
62809;DHT22;48848;39.002;-94.584;2022-08-19T13:45:02;23.10;49.30
62809;DHT22;48848;39.002;-94.584;2022-08-19T13:47:30;23.00;47.90
62809;DHT22;48848;39.002;-94.584;2022-08-19T13:49:56;23.00;48.20
62809;DHT22;48848;39.002;-94.584;2022-08-19T13:52:22;23.00;47.80
62809;DHT22;48848;39.002;-94.584;2022-08-19T13:54:48;23.00;48.50
62809;DHT22;48848;39.002;-94.584;2022-08-19T13:57:14;23.10;48.00
62809;DHT22;48848;39.002;-94.584;2022-08-19T13:59:39;23.10;48.20
62809;DHT22;48848;39.002;-94.584;2022-08-19T14:02:06;23.10;49.20
62809;DHT22;48848;39.002;-94.584;2022-08-19T14:04:32;23.10;47.80
62809;DHT22;48848;39.002;-94.584;2022-08-19T14:06:58;23.10;47.80
62809;DHT22;48848;39.002;-94.584;2022-08-19T14:09:23;23.10;48.10
62809;DHT22;48848;39.002;-94.584;2022-08-19T14:11:49;23.10;48.00
62809;DHT22;48848;39.002;-94.584;2022-08-19T14:14:16;23.10;47.90
62809;DHT22;48848;39.002;-94.584;2022-08-19T14:16:42;23.10;48.30
62809;DHT22;48848;39.002;-94.584;2022-08-19T14:19:08;23.20;48.20
62809;DHT22;48848;39.002;-94.584;2022-08-19T14:21:36;23.10;48.00
62809;DHT22;48848;39.002;-94.584;2022-08-19T14:24:02;23.10;48.20
62809;DHT22;48848;39.002;-94.584;2022-08-19T14:26:28;23.20;47.90
62809;DHT22;48848;39.002;-94.584;2022-08-19T14:28:54;23.20;48.20
62809;DHT22;48848;39.002;-94.584;2022-08-19T14:32:23;23.10;48.30
62809;DHT22;48848;39.002;-94.584;2022-08-19T14:34:52;23.20;48.90
62809;DHT22;48848;39.002;-94.584;2022-08-19T14:37:18;23.20;48.90
62809;DHT22;48848;39.002;-94.584;2022-08-19T14:39:44;23.30;49.20
62809;DHT22;48848;39.002;-94.584;2022-08-19T14:42:10;23.30;49.30
62809;DHT22;48848;39.002;-94.584;2022-08-19T14:44:36;23.30;51.30
62809;DHT22;48848;39.002;-94.584;2022-08-19T14:47:02;23.40;49.60
62809;DHT22;48848;39.002;-94.584;2022-08-19T14:49:28;23.40;49.00
62809;DHT22;48848;39.002;-94.584;2022-08-19T14:51:54;23.40;49.80
62809;DHT22;48848;39.002;-94.584;2022-08-19T14:54:21;23.40;50.10
62809;DHT22;48848;39.002;-94.584;2022-08-19T14:56:47;23.30;49.60
62809;DHT22;48848;39.002;-94.584;2022-08-19T14:59:14;23.40;50.40
62809;DHT22;48848;39.002;-94.584;2022-08-19T15:01:40;23.50;49.70
62809;DHT22;48848;39.002;-94.584;2022-08-19T15:04:05;23.40;49.70
62809;DHT22;48848;39.002;-94.584;2022-08-19T15:06:31;23.40;49.90
62809;DHT22;48848;39.002;-94.584;2022-08-19T15:08:58;23.60;50.20
62809;DHT22;48848;39.002;-94.584;2022-08-19T15:11:25;23.50;50.00
62809;DHT22;48848;39.002;-94.584;2022-08-19T15:13:54;23.40;50.00
62809;DHT22;48848;39.002;-94.584;2022-08-19T15:16:20;23.40;50.20